createdAt,value
2018-08-24T00:04:24.111Z,19.60
2018-08-24T00:09:27.675Z,19.50
2018-08-24T00:14:30.941Z,19.50
2018-08-24T00:19:34.232Z,19.30
2018-08-24T00:24:37.499Z,19.00
2018-08-24T00:34:43.985Z,18.70
2018-08-24T00:39:47.325Z,18.60
2018-08-24T00:44:50.572Z,18.50
2018-08-24T00:49:53.896Z,18.60
2018-08-24T00:54:57.199Z,18.80
2018-08-24T01:00:00.547Z,18.90
2018-08-24T01:05:03.888Z,19.00
2018-08-24T01:10:12.551Z,19.00
2018-08-24T01:15:15.927Z,19.00
2018-08-24T01:20:23.087Z,19.20
2018-08-24T01:25:26.366Z,19.20
2018-08-24T01:30:29.670Z,19.20
2018-08-24T01:35:32.957Z,19.10
2018-08-24T01:40:36.235Z,19.10
2018-08-24T01:45:39.590Z,19.20
2018-08-24T01:50:42.935Z,18.90
2018-08-24T01:55:46.239Z,18.80
2018-08-24T02:00:49.742Z,18.80
2018-08-24T02:05:57.437Z,18.60
2018-08-24T02:11:00.765Z,18.60
2018-08-24T02:21:12.497Z,18.60
2018-08-24T02:26:15.779Z,18.60
2018-08-24T02:31:19.095Z,18.60
2018-08-24T02:36:22.494Z,18.60
2018-08-24T02:41:25.790Z,18.60
2018-08-24T02:46:29.180Z,18.50
2018-08-24T02:51:32.652Z,18.50
2018-08-24T02:56:36.083Z,18.40
2018-08-24T03:01:39.398Z,18.40
2018-08-24T03:06:42.639Z,18.30
2018-08-24T03:11:45.932Z,18.30
2018-08-24T03:16:54.567Z,18.30
2018-08-24T03:21:57.814Z,18.30
2018-08-24T03:27:01.075Z,18.20
2018-08-24T03:32:04.372Z,18.20
2018-08-24T03:37:07.876Z,18.20
2018-08-24T03:42:11.248Z,18.10
2018-08-24T03:47:14.530Z,18.10
2018-08-24T03:52:17.794Z,18.10
2018-08-24T03:57:21.116Z,18.00
2018-08-24T04:02:24.402Z,18.10
2018-08-24T04:07:27.755Z,18.20
2018-08-24T04:12:31.000Z,18.00
2018-08-24T04:17:40.580Z,18.10
2018-08-24T04:22:43.982Z,18.20
2018-08-24T04:27:47.227Z,18.30
2018-08-24T04:32:50.471Z,18.30
2018-08-24T04:37:53.863Z,18.30
2018-08-24T04:42:57.111Z,18.40
2018-08-24T04:48:00.427Z,18.40
2018-08-24T04:53:03.684Z,18.40
2018-08-24T04:58:06.942Z,18.40
2018-08-24T05:03:15.555Z,18.30
2018-08-24T05:08:18.839Z,18.30
2018-08-24T05:18:25.180Z,18.30
2018-08-24T05:23:28.404Z,18.30
2018-08-24T05:28:31.711Z,18.30
2018-08-24T05:33:35.041Z,18.40
2018-08-24T05:38:38.331Z,18.50
2018-08-24T05:43:41.594Z,18.50
2018-08-24T05:48:44.973Z,18.50
2018-08-24T05:53:48.242Z,18.50
2018-08-24T05:58:51.529Z,18.40
2018-08-24T06:03:54.855Z,18.40
2018-08-24T06:09:16.848Z,18.40
2018-08-24T06:14:20.115Z,18.40
2018-08-24T06:19:23.494Z,18.40
2018-08-24T06:24:26.900Z,18.50
2018-08-24T06:29:30.152Z,18.60
2018-08-24T06:34:33.404Z,18.60
2018-08-24T06:39:36.666Z,18.60
2018-08-24T06:44:39.986Z,18.80
2018-08-24T06:49:43.416Z,18.80
2018-08-24T06:54:46.690Z,18.70
2018-08-24T06:59:50.232Z,18.70
2018-08-24T07:04:53.519Z,18.80
2018-08-24T07:09:56.822Z,18.80
2018-08-24T07:15:00.091Z,18.80
2018-08-24T07:20:03.430Z,18.80
2018-08-24T07:25:06.783Z,18.90
2018-08-24T07:30:10.086Z,19.00
2018-08-24T07:35:13.673Z,19.00
2018-08-24T07:40:16.928Z,19.10
2018-08-24T07:50:23.263Z,19.00
2018-08-24T07:55:26.595Z,19.10
2018-08-24T08:00:29.976Z,19.10
2018-08-24T08:05:33.311Z,19.10
2018-08-24T08:10:41.443Z,19.00
2018-08-24T08:15:44.732Z,18.90
2018-08-24T08:20:48.070Z,18.90
2018-08-24T08:25:51.422Z,18.90
2018-08-24T08:30:54.690Z,19.10
2018-08-24T08:35:58.077Z,19.10
2018-08-24T08:41:01.395Z,19.10
2018-08-24T08:46:04.716Z,18.90
2018-08-24T08:51:07.992Z,19.00
2018-08-24T08:56:11.279Z,19.00
2018-08-24T09:01:14.580Z,19.10
2018-08-24T09:06:17.949Z,19.10
2018-08-24T09:11:21.229Z,19.10
2018-08-24T09:16:24.541Z,19.10
2018-08-24T09:21:33.132Z,19.10
2018-08-24T09:26:41.781Z,19.20
2018-08-24T09:31:45.071Z,19.30
2018-08-24T09:36:48.428Z,19.30
2018-08-24T09:41:51.700Z,19.40
2018-08-24T09:47:00.356Z,19.40
2018-08-24T09:52:08.789Z,19.60
2018-08-24T09:57:12.076Z,19.60
2018-08-24T10:02:20.781Z,19.70
2018-08-24T10:07:28.371Z,19.90
2018-08-24T10:12:36.033Z,19.90
2018-08-24T10:22:42.347Z,20.40
2018-08-24T10:27:45.644Z,20.40
2018-08-24T10:32:48.961Z,20.60
2018-08-24T10:42:55.237Z,20.60
2018-08-24T10:47:58.492Z,20.70
2018-08-24T10:53:01.796Z,21.30
2018-08-24T10:58:05.148Z,21.50
2018-08-24T11:03:08.411Z,21.40
2018-08-24T11:08:11.682Z,21.60
2018-08-24T11:13:14.972Z,21.80
2018-08-24T11:18:18.346Z,21.60
2018-08-24T11:28:24.711Z,21.90
2018-08-24T11:33:28.019Z,21.60
2018-08-24T11:38:31.299Z,21.90
2018-08-24T11:43:34.603Z,21.80
2018-08-24T11:48:37.906Z,22.00
2018-08-24T11:53:41.202Z,22.00
2018-08-24T11:58:44.463Z,22.40
2018-08-24T12:03:47.747Z,22.70
2018-08-24T12:08:51.022Z,22.50
2018-08-24T12:18:58.370Z,20.10
2018-08-24T12:24:01.792Z,19.50
2018-08-24T12:29:05.343Z,18.30
2018-08-24T12:34:08.724Z,18.00
2018-08-24T12:39:12.539Z,18.00
2018-08-24T12:44:15.826Z,17.90
2018-08-24T12:49:19.160Z,17.80
2018-08-24T12:54:22.431Z,18.10
2018-08-24T12:59:25.739Z,18.30
2018-08-24T13:04:29.063Z,18.30
2018-08-24T13:09:32.378Z,18.60
2018-08-24T13:14:35.704Z,19.00
2018-08-24T13:19:38.961Z,19.40
2018-08-24T13:24:42.251Z,19.40
2018-08-24T13:29:45.568Z,19.30
2018-08-24T13:34:48.831Z,19.50
2018-08-24T13:39:52.100Z,19.30
2018-08-24T13:44:55.503Z,19.20
2018-08-24T13:49:58.702Z,19.30
2018-08-24T13:55:01.979Z,19.20
2018-08-24T14:00:05.301Z,19.20
2018-08-24T14:05:08.588Z,19.20
2018-08-24T14:10:11.856Z,19.30
2018-08-24T14:15:15.105Z,19.30
2018-08-24T14:20:25.695Z,19.30
2018-08-24T14:25:29.131Z,19.30
2018-08-24T14:30:32.380Z,19.40
2018-08-24T14:35:35.703Z,19.40
2018-08-24T14:40:39.968Z,19.20
2018-08-24T14:45:43.389Z,19.10
2018-08-24T14:50:46.724Z,19.00
2018-08-24T14:55:50.012Z,18.90
2018-08-24T15:00:53.324Z,18.90
2018-08-24T15:05:56.619Z,18.90
2018-08-24T15:10:59.910Z,18.80
2018-08-24T15:16:03.282Z,18.90
2018-08-24T15:21:06.672Z,18.80
2018-08-24T15:26:10.065Z,18.70
2018-08-24T15:31:13.352Z,18.80
2018-08-24T15:36:16.652Z,18.80
2018-08-24T15:41:19.935Z,18.90
2018-08-24T15:46:23.401Z,18.90
2018-08-24T15:51:26.636Z,18.90
2018-08-24T15:56:29.941Z,18.90
2018-08-24T16:01:33.236Z,18.90
2018-08-24T16:06:36.496Z,18.80
2018-08-24T16:11:40.131Z,18.90
2018-08-24T16:16:43.407Z,19.00
2018-08-24T16:21:46.731Z,18.90
2018-08-24T16:26:50.045Z,18.70
2018-08-24T16:31:53.323Z,18.80
2018-08-24T16:36:56.598Z,19.10
2018-08-24T16:41:59.825Z,19.00
2018-08-24T16:47:03.108Z,19.10
2018-08-24T16:52:06.423Z,19.00
2018-08-24T16:57:09.779Z,18.70
2018-08-24T17:02:13.042Z,18.40
2018-08-24T17:07:16.299Z,18.20
2018-08-24T17:12:19.584Z,18.20
2018-08-24T17:17:22.811Z,18.00
2018-08-24T17:22:26.216Z,17.90
2018-08-24T17:27:29.539Z,18.00
2018-08-24T17:32:32.822Z,17.80
2018-08-24T17:37:36.461Z,17.70
2018-08-24T17:42:39.744Z,17.80
2018-08-24T17:47:43.049Z,17.70
2018-08-24T17:52:46.435Z,17.70
2018-08-24T17:57:49.853Z,17.60
2018-08-24T18:02:53.195Z,17.50
2018-08-24T18:07:56.479Z,17.40
2018-08-24T18:12:59.787Z,17.20
2018-08-24T18:18:03.833Z,17.20
2018-08-24T18:23:07.128Z,17.00
2018-08-24T18:28:10.386Z,16.90
2018-08-24T18:33:13.764Z,16.80
2018-08-24T18:38:17.067Z,16.70
2018-08-24T18:43:20.603Z,16.50
2018-08-24T18:48:24.033Z,16.50
2018-08-24T18:53:28.468Z,16.40
2018-08-24T18:58:32.695Z,16.30
2018-08-24T19:03:37.002Z,16.30
2018-08-24T19:08:40.811Z,16.20
2018-08-24T19:13:44.257Z,16.10
2018-08-24T19:18:53.218Z,16.10
2018-08-24T19:23:57.068Z,16.20
2018-08-24T19:29:05.742Z,16.20
2018-08-24T19:34:09.783Z,16.00
2018-08-24T19:39:14.596Z,16.00
2018-08-24T19:49:21.782Z,16.00
2018-08-24T19:54:25.106Z,15.90
2018-08-24T19:59:28.375Z,15.90
2018-08-24T20:04:33.037Z,15.80
2018-08-24T20:09:41.789Z,15.70
2018-08-24T20:14:50.347Z,15.70
2018-08-24T20:19:53.722Z,15.70
2018-08-24T20:24:57.184Z,15.70
2018-08-24T20:30:00.685Z,15.70
2018-08-24T20:35:04.046Z,15.50
2018-08-24T20:40:07.452Z,15.60
2018-08-24T20:45:10.751Z,15.50
2018-08-24T20:50:14.063Z,15.50
2018-08-24T20:55:17.811Z,15.50
2018-08-24T21:00:21.067Z,15.40
2018-08-24T21:05:24.411Z,15.50
2018-08-24T21:10:27.768Z,15.40
2018-08-24T21:15:31.053Z,15.50
2018-08-24T21:25:37.450Z,15.50
2018-08-24T21:35:43.877Z,15.40
2018-08-24T21:40:47.138Z,15.30
2018-08-24T21:45:50.459Z,15.40
2018-08-24T21:50:53.739Z,15.30
2018-08-24T21:55:57.036Z,15.30
2018-08-24T22:01:00.376Z,15.40
2018-08-24T22:11:06.826Z,15.30
2018-08-24T22:16:10.124Z,15.20
2018-08-24T22:21:13.514Z,15.20
2018-08-24T22:31:19.980Z,15.10
2018-08-24T22:36:23.237Z,15.10
2018-08-24T22:41:26.664Z,15.00
2018-08-24T22:46:29.940Z,15.10
2018-08-24T22:51:33.228Z,15.00
2018-08-24T22:56:36.521Z,15.10
2018-08-24T23:01:39.792Z,15.10
2018-08-24T23:11:46.039Z,14.90
2018-08-24T23:16:49.380Z,14.90
2018-08-24T23:21:52.700Z,14.90
2018-08-24T23:26:56.007Z,14.90
2018-08-24T23:31:59.275Z,14.80
2018-08-24T23:37:02.599Z,14.60
2018-08-24T23:42:05.890Z,14.60
2018-08-24T23:47:09.136Z,14.60
2018-08-24T23:52:12.559Z,14.60
2018-08-24T23:57:15.855Z,14.50
